Time;durP1;ratioP1;P1;durP2;ratioP2;P2;SDS_P1;SDS_P2;PMS_P1;PMS_P2;Temp;Humidity;BMP_temperature;BMP_pressure;BME280_temperature;BME280_humidity;BME280_pressure;Samples;Min_cycle;Max_cycle;Signal;HPM_P1;HPM_P2
2022/10/08 00:00:41;;;;;;;20.48;8.80;;;;;;;11.89;65.47;96012.41;5047042;28;20044;-77
2022/10/08 00:03:06;;;;;;;24.15;9.43;;;;;;;11.49;65.33;95943.94;5047481;28;20040;-77
2022/10/08 00:05:32;;;;;;;19.63;8.75;;;;;;;11.92;65.45;96009.19;5045261;28;20036;-77
2022/10/08 00:07:57;;;;;;;18.35;8.50;;;;;;;11.76;65.20;95980.97;5070789;28;20042;-77
2022/10/08 00:10:22;;;;;;;24.23;9.25;;;;;;;11.56;65.48;95949.81;5066610;28;20808;-77
2022/10/08 00:12:48;;;;;;;14.18;8.80;;;;;;;11.26;65.70;95911.72;5048065;28;20726;-77
2022/10/08 00:15:13;;;;;;;20.70;8.75;;;;;;;11.13;65.65;95889.09;5048831;28;20035;-77
2022/10/08 00:17:39;;;;;;;20.92;9.73;;;;;;;11.82;65.72;96003.06;5049171;28;20136;-77
2022/10/08 00:20:04;;;;;;;24.92;9.55;;;;;;;11.54;65.95;95961.75;5049595;28;20052;-77
2022/10/08 00:22:30;;;;;;;19.17;9.30;;;;;;;11.56;66.14;95962.28;5047899;28;20534;-77
2022/10/08 00:24:56;;;;;;;20.70;9.18;;;;;;;11.22;66.17;95924.69;5064852;28;20028;-77
2022/10/08 00:27:25;;;;;;;24.75;9.20;;;;;;;11.38;66.04;95938.81;5066757;28;20036;-77
2022/10/08 00:29:51;;;;;;;23.05;9.65;;;;;;;11.40;66.33;95963.28;5052622;28;20043;-77
2022/10/08 00:32:18;;;;;;;23.30;9.48;;;;;;;11.56;66.92;95994.97;5071817;28;20819;-77
2022/10/08 00:34:44;;;;;;;22.15;10.15;;;;;;;11.46;66.37;95978.97;5066566;28;20661;-77
2022/10/08 00:37:09;;;;;;;17.83;11.05;;;;;;;11.38;66.60;95974.16;5073063;28;20043;-77
2022/10/08 00:39:35;;;;;;;21.15;9.95;;;;;;;11.43;66.91;95984.81;5073022;28;20028;-77
2022/10/08 00:42:01;;;;;;;27.35;9.73;;;;;;;11.00;66.90;95921.41;5074243;28;20782;-77
2022/10/08 00:44:50;;;;;;;18.20;8.98;;;;;;;11.35;67.18;95977.34;5074817;28;20035;-77
2022/10/08 00:47:32;;;;;;;23.08;9.90;;;;;;;11.36;67.01;95978.94;5074721;28;20028;-77
2022/10/08 00:50:18;;;;;;;19.65;9.73;;;;;;;11.29;67.55;95970.38;5045952;28;20143;-77
2022/10/08 00:53:05;;;;;;;24.75;9.40;;;;;;;11.27;67.67;95979.69;5054064;28;20139;-77
2022/10/08 00:55:31;;;;;;;22.55;9.80;;;;;;;11.11;67.34;95952.25;5045594;28;20067;-77
2022/10/08 00:58:04;;;;;;;27.30;10.52;;;;;;;11.07;67.94;95970.53;5071758;28;20043;-77
2022/10/08 01:00:30;;;;;;;22.58;10.13;;;;;;;11.03;67.57;95956.19;5052833;28;20034;-77
2022/10/08 01:02:55;;;;;;;20.77;10.30;;;;;;;11.07;67.96;95965.22;5073370;28;20035;-78
2022/10/08 01:05:38;;;;;;;20.10;9.80;;;;;;;10.56;68.06;95895.16;5070471;28;20443;-76
2022/10/08 01:08:22;;;;;;;22.88;9.85;;;;;;;11.00;67.84;95954.03;5053761;28;20422;-76
2022/10/08 01:11:03;;;;;;;23.05;10.35;;;;;;;10.61;68.03;95899.69;5067211;28;20522;-77
2022/10/08 01:14:13;;;;;;;28.13;10.90;;;;;;;10.92;68.35;95949.22;5052428;28;20421;-76
2022/10/08 01:17:14;;;;;;;25.90;11.65;;;;;;;10.68;68.07;95905.59;5047827;28;20159;-76
2022/10/08 01:19:57;;;;;;;17.45;10.27;;;;;;;10.74;68.11;95901.91;5039200;28;20040;-77
2022/10/08 01:23:00;;;;;;;21.98;10.63;;;;;;;10.99;68.99;95933.06;5051491;28;20035;-76
2022/10/08 01:25:44;;;;;;;20.65;10.20;;;;;;;10.99;68.55;95936.53;5045904;28;20032;-76
2022/10/08 01:29:05;;;;;;;23.55;10.27;;;;;;;11.01;68.24;95931.75;5068160;28;20043;-77
2022/10/08 01:31:41;;;;;;;33.30;10.47;;;;;;;11.02;69.03;95930.72;5027989;28;20067;-76
2022/10/08 01:34:17;;;;;;;23.83;10.32;;;;;;;10.76;68.30;95900.56;5048969;28;20063;-76
2022/10/08 01:36:46;;;;;;;24.08;11.57;;;;;;;10.91;68.74;95915.78;5066426;28;20031;-76
2022/10/08 01:39:17;;;;;;;23.45;10.95;;;;;;;10.71;68.44;95884.63;5067054;28;20152;-76
2022/10/08 01:41:50;;;;;;;26.63;11.50;;;;;;;10.97;68.70;95920.06;5048785;28;20039;-76
2022/10/08 01:44:25;;;;;;;20.10;11.02;;;;;;;10.87;68.49;95897.97;5065231;28;20042;-76
2022/10/08 01:46:57;;;;;;;19.45;10.13;;;;;;;10.78;68.24;95897.66;5067076;28;20051;-77
2022/10/08 01:49:28;;;;;;;25.10;11.20;;;;;;;10.45;68.68;95856.38;5066424;28;20048;-77
2022/10/08 01:51:59;;;;;;;22.80;10.55;;;;;;;10.45;68.93;95862.44;5067890;28;20452;-77
2022/10/08 01:54:28;;;;;;;26.75;10.70;;;;;;;10.59;68.95;95878.72;5048881;28;20697;-77
2022/10/08 01:56:56;;;;;;;23.00;11.30;;;;;;;10.51;68.74;95900.44;5048396;28;20039;-77
2022/10/08 01:59:38;;;;;;;28.42;11.23;;;;;;;10.71;69.46;95916.47;5067528;28;20032;-75
2022/10/08 02:02:20;;;;;;;28.13;10.65;;;;;;;10.63;68.44;95901.03;5066530;28;20039;-76
2022/10/08 02:04:46;;;;;;;20.42;10.93;;;;;;;10.42;69.13;95855.03;5048200;28;20543;-76
2022/10/08 02:07:18;;;;;;;20.77;10.30;;;;;;;10.86;68.24;95914.94;5068993;28;20028;-75
2022/10/08 02:09:47;;;;;;;24.95;10.90;;;;;;;10.87;68.81;95921.88;5050583;28;20399;-76
2022/10/08 02:12:13;;;;;;;24.35;10.18;;;;;;;10.89;68.51;95927.72;5068213;28;20063;-76
2022/10/08 02:14:46;;;;;;;19.95;11.02;;;;;;;10.83;68.80;95918.94;5068369;28;20028;-75
2022/10/08 02:17:15;;;;;;;22.98;11.38;;;;;;;10.89;68.58;95927.72;5070725;28;20044;-75
2022/10/08 02:19:55;;;;;;;25.13;11.75;;;;;;;10.93;68.70;95926.13;5052141;28;20063;-75
2022/10/08 02:22:28;;;;;;;25.92;12.00;;;;;;;10.57;68.34;95869.44;5069254;28;20035;-76
2022/10/08 02:25:15;;;;;;;25.90;12.23;;;;;;;10.58;68.26;95877.13;5067857;28;20031;-76
2022/10/08 02:28:11;;;;;;;27.48;11.27;;;;;;;10.87;68.69;95921.88;5068958;28;20494;-76
2022/10/08 02:31:03;;;;;;;20.73;11.07;;;;;;;10.35;68.34;95856.28;5050634;28;20059;-75
2022/10/08 02:33:49;;;;;;;;;;;;;;;10.76;68.37;95926.28;5055575;28;20578;-75
2022/10/08 02:36:21;;;;;;;23.05;11.70;;;;;;;10.27;69.07;95851.47;5070207;28;19923;-75
2022/10/08 02:38:52;;;;;;;17.13;11.05;;;;;;;10.48;68.61;95884.22;5062033;28;20105;-75
2022/10/08 02:41:22;;;;;;;22.33;10.65;;;;;;;9.98;68.89;95814.66;5052071;28;20032;-75
2022/10/08 02:43:50;;;;;;;21.85;11.02;;;;;;;10.50;68.73;95900.69;5069920;28;20044;-75
2022/10/08 02:46:20;;;;;;;25.50;12.00;;;;;;;10.61;69.24;95919.03;5068751;28;20786;-75
2022/10/08 02:48:56;;;;;;;23.30;10.85;;;;;;;10.04;68.92;95834.03;5077960;28;20050;-76
2022/10/08 02:51:23;;;;;;;25.13;10.77;;;;;;;10.59;69.14;95918.53;5070531;28;20039;-75
2022/10/08 02:53:49;;;;;;;23.65;12.10;;;;;;;10.32;68.96;95878.00;5069920;28;20042;-75
2022/10/08 02:56:26;;;;;;;25.50;11.70;;;;;;;10.38;69.49;95885.72;5070434;28;20069;-75
2022/10/08 02:58:54;;;;;;;26.27;12.48;;;;;;;10.19;69.23;95873.13;5052678;28;20538;-75
2022/10/08 03:01:37;;;;;;;23.05;12.32;;;;;;;10.58;68.47;95916.91;5053405;28;20097;-76
2022/10/08 03:04:03;;;;;;;19.23;11.55;;;;;;;10.55;69.03;95919.25;5068545;28;20047;-75
2022/10/08 03:06:30;;;;;;;24.38;11.50;;;;;;;10.53;69.41;95919.50;5069607;28;20392;-76
2022/10/08 03:08:58;;;;;;;21.27;11.35;;;;;;;10.28;68.64;95895.47;5070743;28;20037;-75
2022/10/08 03:11:25;;;;;;;25.30;11.57;;;;;;;10.27;69.28;95885.94;5069632;28;20036;-75
2022/10/08 03:13:57;;;;;;;25.58;11.43;;;;;;;10.51;68.92;95920.84;5052754;28;20545;-75
2022/10/08 03:16:24;;;;;;;;;;;;;;;10.51;69.24;95915.53;5052607;28;20505;-75
2022/10/08 03:18:51;;;;;;;24.83;11.68;;;;;;;10.44;69.74;95918.41;5065477;28;19956;-76
2022/10/08 03:21:17;;;;;;;24.05;12.68;;;;;;;10.13;69.80;95882.88;5047674;28;20039;-75
2022/10/08 03:23:43;;;;;;;26.48;12.45;;;;;;;10.23;69.64;95890.13;5070732;28;20032;-75
2022/10/08 03:26:08;;;;;;;28.00;12.63;;;;;;;10.44;69.33;95913.91;5053103;28;20800;-76
2022/10/08 03:28:33;;;;;;;25.85;11.90;;;;;;;10.36;69.77;95901.13;5060338;28;20032;-75
2022/10/08 03:31:05;;;;;;;32.53;12.52;;;;;;;10.23;69.38;95868.91;5070308;28;20032;-75
2022/10/08 03:33:32;;;;;;;28.35;12.93;;;;;;;10.49;69.37;95902.53;5070630;28;20115;-76
2022/10/08 03:35:57;;;;;;;33.25;13.35;;;;;;;10.17;69.52;95860.13;5071190;28;20032;-75
2022/10/08 03:38:23;;;;;;;30.38;12.27;;;;;;;10.49;69.31;95904.38;5070811;28;20039;-75
2022/10/08 03:40:57;;;;;;;29.85;15.20;;;;;;;10.22;70.01;95862.81;5052124;28;20071;-75
2022/10/08 03:43:22;;;;;;;37.63;15.45;;;;;;;10.10;69.44;95840.16;5034108;28;20692;-75
2022/10/08 03:45:52;;;;;;;25.70;12.20;;;;;;;10.25;69.84;95857.00;5071634;28;20114;-75
2022/10/08 03:48:19;;;;;;;26.92;13.23;;;;;;;10.27;69.78;95880.63;5054152;28;20034;-75
2022/10/08 03:50:59;;;;;;;26.45;12.73;;;;;;;9.69;69.61;95790.31;5051344;28;20080;-75
2022/10/08 03:53:26;;;;;;;29.15;12.98;;;;;;;9.94;69.30;95826.81;5053927;28;20140;-75
2022/10/08 03:55:52;;;;;;;27.10;13.38;;;;;;;10.02;69.52;95836.94;5051846;28;20986;-75
2022/10/08 03:58:18;;;;;;;32.03;14.77;;;;;;;10.46;68.94;95903.03;5051972;28;20044;-75
2022/10/08 04:00:43;;;;;;;33.53;13.80;;;;;;;10.48;69.27;95908.09;5052391;28;20033;-75
2022/10/08 04:03:09;;;;;;;30.90;13.38;;;;;;;10.50;68.80;95905.97;5042215;28;20040;-75
2022/10/08 04:05:35;;;;;;;34.00;13.25;;;;;;;10.45;69.38;95907.53;5051241;28;20070;-75
2022/10/08 04:08:00;;;;;;;30.90;14.23;;;;;;;10.30;68.30;95883.56;5039405;28;20086;-75
2022/10/08 04:10:26;;;;;;;21.92;12.57;;;;;;;10.12;68.93;95873.34;5051631;28;20033;-75
2022/10/08 04:12:51;;;;;;;22.00;12.48;;;;;;;10.02;69.17;95874.03;5042621;28;20041;-75
2022/10/08 04:15:17;;;;;;;31.50;13.75;;;;;;;10.24;69.26;95910.28;5047821;28;20206;-75
2022/10/08 04:17:42;;;;;;;27.15;13.15;;;;;;;10.04;69.03;95877.25;5048190;28;20720;-75
2022/10/08 04:20:09;;;;;;;22.75;12.75;;;;;;;9.57;69.21;95818.00;5051212;28;20058;-76
2022/10/08 04:22:34;;;;;;;23.90;11.88;;;;;;;9.39;69.97;95799.81;5051775;28;20127;-75
2022/10/08 04:24:59;;;;;;;27.58;12.57;;;;;;;10.11;70.32;95906.19;5052482;28;20910;-76
2022/10/08 04:27:25;;;;;;;34.97;11.95;;;;;;;9.76;69.56;95869.59;5052248;28;20036;-75
2022/10/08 04:29:50;;;;;;;23.75;12.65;;;;;;;9.78;70.19;95878.06;5051520;28;20032;-75
2022/10/08 04:32:16;;;;;;;30.77;12.48;;;;;;;9.96;69.90;95906.03;5049907;28;20051;-75
2022/10/08 04:34:41;;;;;;;20.77;11.60;;;;;;;9.74;69.79;95876.16;5047511;28;20043;-75
2022/10/08 04:37:08;;;;;;;30.38;12.93;;;;;;;9.93;70.21;95903.88;5046382;28;20814;-75
2022/10/08 04:39:33;;;;;;;23.02;11.70;;;;;;;9.81;69.93;95876.78;5052733;28;20043;-75
2022/10/08 04:41:59;;;;;;;27.05;12.18;;;;;;;9.50;70.24;95828.81;5047828;28;20033;-76
2022/10/08 04:44:24;;;;;;;23.90;12.70;;;;;;;9.79;70.47;95879.66;5039148;28;20091;-75
2022/10/08 04:46:50;;;;;;;28.65;14.23;;;;;;;9.86;70.47;95904.09;5050746;28;20041;-75
2022/10/08 04:49:15;;;;;;;27.88;12.00;;;;;;;9.48;70.66;95824.81;5057599;28;20112;-76
2022/10/08 04:51:41;;;;;;;23.77;12.05;;;;;;;9.31;70.24;95802.94;5073395;28;20426;-76
2022/10/08 04:54:06;;;;;;;27.27;12.27;;;;;;;9.92;70.58;95921.63;5074220;28;20123;-75
2022/10/08 04:56:34;;;;;;;31.65;12.75;;;;;;;9.64;70.82;95860.97;5050845;28;20036;-75
2022/10/08 04:58:59;;;;;;;22.92;12.43;;;;;;;9.74;70.23;95878.81;5044600;28;20352;-75
2022/10/08 05:01:27;;;;;;;28.05;12.30;;;;;;;9.43;70.20;95827.41;5056093;28;20031;-75
2022/10/08 05:03:54;;;;;;;29.23;12.38;;;;;;;9.53;70.92;95835.47;5074228;28;20040;-75
2022/10/08 05:06:22;;;;;;;34.97;14.20;;;;;;;9.98;70.75;95909.25;5073813;28;20036;-76
2022/10/08 05:08:49;;;;;;;33.70;12.57;;;;;;;9.71;70.69;95866.06;5056616;28;20040;-75
2022/10/08 05:11:15;;;;;;;30.17;13.55;;;;;;;9.78;70.02;95856.88;5073324;28;20036;-75
2022/10/08 05:13:41;;;;;;;28.42;12.90;;;;;;;9.93;70.93;95885.34;5073139;28;20075;-76
2022/10/08 05:16:08;;;;;;;27.55;12.50;;;;;;;9.69;70.38;95845.94;5053097;28;20934;-75
2022/10/08 05:18:35;;;;;;;29.13;12.27;;;;;;;10.12;70.45;95904.34;5072386;28;20508;-75
2022/10/08 05:21:15;;;;;;;28.13;13.25;;;;;;;10.17;70.70;95907.00;5071416;28;20032;-75
2022/10/08 05:23:44;;;;;;;32.83;13.35;;;;;;;9.23;70.18;95762.63;5054686;28;20383;-75
2022/10/08 05:26:21;;;;;;;43.30;14.73;;;;;;;9.65;70.67;95828.94;5052703;28;20794;-75
2022/10/08 05:28:48;;;;;;;43.97;15.23;;;;;;;10.23;70.32;95904.19;5051865;28;20232;-75
2022/10/08 05:31:16;;;;;;;44.25;16.00;;;;;;;10.27;70.47;95912.44;5069757;28;20028;-75
2022/10/08 05:33:42;;;;;;;37.63;14.73;;;;;;;10.16;70.58;95897.47;5052210;28;20422;-75
2022/10/08 05:36:20;;;;;;;39.50;16.38;;;;;;;10.32;69.69;95918.56;5049683;28;20040;-75
2022/10/08 05:38:46;;;;;;;28.48;13.77;;;;;;;9.75;70.00;95822.16;5068025;28;20036;-75
2022/10/08 05:41:14;;;;;;;36.25;14.95;;;;;;;9.96;70.48;95847.75;5067140;28;20032;-75
2022/10/08 05:43:41;;;;;;;49.45;16.30;;;;;;;9.77;70.58;95822.69;5050125;28;20509;-75
2022/10/08 05:46:06;;;;;;;33.50;14.45;;;;;;;10.05;70.34;95855.00;5069620;28;20818;-75
2022/10/08 05:48:32;;;;;;;38.42;13.55;;;;;;;10.48;70.36;95930.09;5069695;28;20062;-75
2022/10/08 05:51:11;;;;;;;37.88;15.60;;;;;;;9.64;69.82;95776.22;5070512;28;20048;-75
2022/10/08 05:53:38;;;;;;;42.33;15.48;;;;;;;10.45;69.63;95894.28;5069927;28;20054;-75
2022/10/08 05:56:06;;;;;;;40.95;16.05;;;;;;;10.34;70.06;95870.59;5056136;28;20039;-75
2022/10/08 05:58:33;;;;;;;29.98;14.90;;;;;;;10.30;69.81;95854.38;5070888;28;20020;-74
2022/10/08 06:01:01;;;;;;;38.88;16.48;;;;;;;10.73;69.47;95919.66;5051846;28;20028;-75
2022/10/08 06:03:26;;;;;;;35.55;17.98;;;;;;;10.38;69.46;95861.88;5050059;28;20035;-75
2022/10/08 06:05:52;;;;;;;41.65;19.23;;;;;;;10.84;69.68;95916.00;5065948;28;20036;-75
2022/10/08 06:08:18;;;;;;;45.85;25.90;;;;;;;10.89;69.62;95912.59;5046730;28;20024;-75
2022/10/08 06:10:51;;;;;;;44.67;25.58;;;;;;;10.98;68.98;95913.72;5065670;28;20428;-76
2022/10/08 06:13:21;;;;;;;48.13;24.48;;;;;;;11.04;68.36;95917.97;5047543;28;20078;-74
2022/10/08 06:16:04;;;;;;;51.42;23.00;;;;;;;10.98;68.42;95891.69;5064636;28;20047;-75
2022/10/08 06:18:32;;;;;;;45.90;17.83;;;;;;;10.98;67.80;95897.00;5064367;28;20070;-77
2022/10/08 06:21:04;;;;;;;34.65;17.80;;;;;;;10.88;68.09;95867.75;5047002;28;20124;-75
2022/10/08 06:23:31;;;;;;;40.65;16.98;;;;;;;11.12;67.94;95896.25;5045579;28;20059;-75
2022/10/08 06:26:00;;;;;;;44.53;17.48;;;;;;;11.23;68.08;95918.31;5045558;28;20039;-75
2022/10/08 06:28:26;;;;;;;35.33;13.98;;;;;;;11.21;67.40;95899.22;5043952;28;20073;-75
2022/10/08 06:30:51;;;;;;;32.30;14.00;;;;;;;11.11;67.52;95877.94;5044113;28;20112;-75
2022/10/08 06:33:17;;;;;;;30.63;14.27;;;;;;;11.20;67.18;95885.16;5068320;28;20036;-76
2022/10/08 06:35:42;;;;;;;41.60;16.63;;;;;;;11.34;67.31;95901.38;5068269;28;20138;-75
2022/10/08 06:38:07;;;;;;;38.25;18.70;;;;;;;11.37;67.32;95892.09;5049738;28;20028;-76
2022/10/08 06:40:39;;;;;;;42.83;22.90;;;;;;;11.47;66.73;95916.03;5067744;28;20032;-76
2022/10/08 06:43:13;;;;;;;53.17;23.70;;;;;;;11.33;66.24;95875.88;5043430;28;20559;-75
2022/10/08 06:45:39;;;;;;;56.17;23.52;;;;;;;11.32;66.31;95873.50;5046903;28;20741;-75
2022/10/08 06:48:05;;;;;;;51.55;25.50;;;;;;;11.03;66.21;95823.50;5051525;28;20190;-76
2022/10/08 06:50:31;;;;;;;45.28;24.80;;;;;;;11.37;65.96;95868.97;5063297;28;20070;-76
2022/10/08 06:52:57;;;;;;;51.83;24.00;;;;;;;11.58;65.88;95889.25;5070601;28;20059;-76
2022/10/08 06:55:22;;;;;;;62.65;24.27;;;;;;;11.41;66.24;95851.47;5053510;28;20499;-76
2022/10/08 06:57:48;;;;;;;36.40;18.75;;;;;;;11.31;66.52;95845.34;5072964;28;20040;-76
2022/10/08 07:00:13;;;;;;;41.78;20.45;;;;;;;11.72;65.81;95896.72;5073041;28;20032;-76
2022/10/08 07:02:39;;;;;;;41.35;15.27;;;;;;;11.43;65.77;95851.22;5073085;28;20043;-77
2022/10/08 07:05:04;;;;;;;49.47;18.98;;;;;;;11.60;66.11;95878.34;5053696;28;20047;-76
2022/10/08 07:07:30;;;;;;;30.35;14.55;;;;;;;11.61;65.85;95866.66;5071807;28;20136;-75
2022/10/08 07:09:55;;;;;;;29.17;14.63;;;;;;;11.72;65.59;95864.81;5054469;28;20043;-76
2022/10/08 07:12:21;;;;;;;37.80;14.40;;;;;;;12.01;65.16;95899.69;5053950;28;20142;-76
2022/10/08 07:14:46;;;;;;;46.47;17.35;;;;;;;11.66;65.64;95861.38;5053844;28;20560;-75
2022/10/08 07:17:11;;;;;;;35.72;17.13;;;;;;;11.74;65.57;95862.72;5070372;28;20094;-77
2022/10/08 07:19:37;;;;;;;32.17;15.02;;;;;;;11.87;65.57;95899.44;5070755;28;20041;-76
2022/10/08 07:22:02;;;;;;;33.70;17.90;;;;;;;11.70;65.83;95862.44;5051907;28;20058;-75
2022/10/08 07:24:28;;;;;;;42.25;16.88;;;;;;;11.85;65.34;95862.47;5053235;28;20040;-76
2022/10/08 07:26:53;;;;;;;38.85;15.43;;;;;;;11.76;65.47;95848.09;5064751;28;20059;-76
2022/10/08 07:29:19;;;;;;;30.00;13.82;;;;;;;12.20;65.53;95898.94;5073177;28;20446;-75
2022/10/08 07:31:44;;;;;;;26.23;13.60;;;;;;;11.83;65.07;95837.22;5073175;28;20039;-75
2022/10/08 07:34:11;;;;;;;28.55;14.35;;;;;;;12.14;65.02;95872.59;5072858;28;20465;-75
2022/10/08 07:36:38;;;;;;;38.00;14.32;;;;;;;12.37;64.66;95896.78;5071642;28;20046;-75
2022/10/08 07:39:13;;;;;;;28.13;14.85;;;;;;;12.44;64.86;95899.16;5071786;28;20075;-75
2022/10/08 07:41:39;;;;;;;33.67;14.85;;;;;;;12.54;64.56;95893.84;5052754;28;20043;-76
2022/10/08 07:44:05;;;;;;;35.92;14.90;;;;;;;12.60;64.55;95889.31;5070698;28;20027;-76
2022/10/08 07:46:35;;;;;;;32.33;15.45;;;;;;;12.52;64.63;95888.00;5040760;28;20051;-76
2022/10/08 07:49:03;;;;;;;41.80;14.83;;;;;;;12.15;64.86;95832.44;5052410;28;20139;-76
2022/10/08 07:51:32;;;;;;;32.88;15.48;;;;;;;12.59;64.21;95891.19;5069721;28;20871;-76
2022/10/08 07:53:58;;;;;;;34.60;15.65;;;;;;;12.70;64.30;95881.31;5069505;28;20044;-76
2022/10/08 07:56:24;;;;;;;30.63;15.05;;;;;;;12.39;64.15;95838.00;5068149;28;20047;-75
2022/10/08 07:58:50;;;;;;;27.92;14.55;;;;;;;12.26;64.16;95804.78;5051058;28;20044;-76
2022/10/08 08:01:19;;;;;;;27.00;14.88;;;;;;;12.84;64.27;95885.00;5051962;28;20207;-76
2022/10/08 08:03:45;;;;;;;29.27;15.55;;;;;;;12.75;64.62;95881.31;5069216;28;20051;-76
2022/10/08 08:06:15;;;;;;;31.70;15.63;;;;;;;12.32;64.74;95805.56;5049726;28;20049;-76
2022/10/08 08:08:43;;;;;;;30.83;15.27;;;;;;;12.89;64.46;95877.00;5050095;28;20127;-75
2022/10/08 08:11:11;;;;;;;29.70;15.68;;;;;;;12.98;64.55;95875.38;5069410;28;20035;-75
2022/10/08 08:13:38;;;;;;;31.73;15.93;;;;;;;13.04;64.06;95881.50;5060698;28;20498;-76
2022/10/08 08:16:09;;;;;;;29.77;14.20;;;;;;;13.15;63.85;95864.44;5049727;28;20032;-75
2022/10/08 08:18:36;;;;;;;;;;;;;;;13.19;63.62;95873.50;5049596;28;20349;-76
2022/10/08 08:21:10;;;;;;;31.30;15.52;;;;;;;13.25;63.49;95867.06;5051371;28;19923;-76
2022/10/08 08:23:39;;;;;;;29.80;15.43;;;;;;;13.34;63.18;95862.78;5051158;28;20044;-75
2022/10/08 08:26:07;;;;;;;30.30;16.60;;;;;;;13.24;63.63;95846.03;5051165;28;20040;-76
2022/10/08 08:28:33;;;;;;;40.70;17.52;;;;;;;12.94;63.76;95783.81;5071482;28;20501;-76
2022/10/08 08:31:29;;;;;;;33.80;16.77;;;;;;;13.53;63.70;95861.06;5054058;28;20044;-75
2022/10/08 08:33:58;;;;;;;32.60;16.08;;;;;;;12.56;63.36;95696.69;5069273;28;20040;-76
2022/10/08 08:36:30;;;;;;;40.78;18.83;;;;;;;13.64;62.89;95861.03;5072104;28;20055;-75
2022/10/08 08:38:56;;;;;;;33.45;18.23;;;;;;;13.35;62.88;95804.97;5070663;28;20040;-75
2022/10/08 08:41:31;;;;;;;36.22;15.98;;;;;;;13.67;62.73;95858.59;5069057;28;20032;-76
2022/10/08 08:44:12;;;;;;;37.67;17.20;;;;;;;13.71;62.44;95854.31;5040454;28;20036;-74
2022/10/08 08:46:42;;;;;;;36.03;18.17;;;;;;;13.42;62.68;95782.28;5060823;28;20494;-75
2022/10/08 08:49:30;;;;;;;33.38;18.48;;;;;;;13.56;62.39;95798.44;5042302;28;20067;-75
2022/10/08 08:51:58;;;;;;;33.67;16.60;;;;;;;13.89;61.92;95818.16;5065201;28;20044;-75
2022/10/08 08:54:24;;;;;;;31.80;16.63;;;;;;;13.78;62.04;95796.16;5070740;28;20429;-75
2022/10/08 08:56:51;;;;;;;37.33;19.38;;;;;;;14.14;61.31;95847.31;5071844;28;20046;-76
2022/10/08 08:59:32;;;;;;;31.85;16.25;;;;;;;14.27;60.80;95846.66;5072409;28;20036;-75
2022/10/08 09:02:03;;;;;;;31.13;15.67;;;;;;;14.20;60.77;95824.06;5071853;28;20425;-76
2022/10/08 09:04:39;;;;;;;32.55;16.92;;;;;;;14.41;60.76;95832.72;5051698;28;20093;-76
2022/10/08 09:07:10;;;;;;;34.95;15.93;;;;;;;14.48;60.61;95827.84;5051812;28;20041;-76
2022/10/08 09:09:47;;;;;;;33.38;15.82;;;;;;;14.42;59.64;95813.75;5049791;28;20032;-76
2022/10/08 09:12:24;;;;;;;29.33;15.32;;;;;;;14.65;59.03;95833.53;5071133;28;21056;-75
2022/10/08 09:14:55;;;;;;;21.35;12.45;;;;;;;14.53;59.36;95796.56;5051208;28;20039;-76
2022/10/08 09:17:32;;;;;;;25.75;12.55;;;;;;;14.52;59.21;95778.16;5051699;28;20028;-76
2022/10/08 09:19:59;;;;;;;21.48;11.07;;;;;;;14.83;58.65;95824.00;5066911;28;20046;-76
2022/10/08 09:22:26;;;;;;;21.38;10.90;;;;;;;14.66;59.02;95781.72;5049187;28;20052;-76
2022/10/08 09:25:01;;;;;;;14.98;8.68;;;;;;;15.05;58.57;95821.59;5066594;28;20046;-75
2022/10/08 09:27:43;;;;;;;18.92;9.52;;;;;;;14.83;58.18;95765.25;5058063;28;20131;-75
2022/10/08 09:30:24;;;;;;;15.68;8.75;;;;;;;15.18;57.38;95817.47;5048635;28;20038;-76
2022/10/08 09:32:54;;;;;;;18.70;8.90;;;;;;;14.85;56.81;95761.22;5039187;28;20059;-76
2022/10/08 09:35:20;;;;;;;18.52;8.90;;;;;;;15.07;56.77;95785.53;5057785;28;20075;-76
2022/10/08 09:37:47;;;;;;;20.25;8.05;;;;;;;15.34;55.88;95802.81;5038773;28;20052;-76
2022/10/08 09:40:25;;;;;;;19.15;8.13;;;;;;;15.09;54.56;95731.03;5038868;28;20025;-76
2022/10/08 09:43:10;;;;;;;13.40;7.38;;;;;;;15.51;54.85;95799.63;5048615;28;20040;-75
2022/10/08 09:45:47;;;;;;;16.20;6.72;;;;;;;15.57;54.03;95787.81;5066751;28;20140;-76
2022/10/08 09:48:21;;;;;;;11.48;7.15;;;;;;;15.77;54.60;95779.50;5049288;28;20573;-76
2022/10/08 09:50:55;;;;;;;11.98;5.30;;;;;;;16.53;51.67;95725.44;5049501;28;20115;-76
2022/10/08 09:53:22;;;;;;;13.35;4.65;;;;;;;17.68;47.65;95712.56;5049412;28;20036;-76
2022/10/08 09:55:53;;;;;;;10.05;5.60;;;;;;;19.49;44.46;95787.78;5064075;28;20190;-76
2022/10/08 09:58:19;;;;;;;13.85;5.53;;;;;;;20.82;40.91;95771.63;5044373;28;20595;-76
2022/10/08 10:01:05;;;;;;;14.30;6.25;;;;;;;22.12;38.38;95753.47;5051251;28;20044;-76
2022/10/08 10:03:32;;;;;;;14.70;6.78;;;;;;;23.21;36.74;95750.13;5065617;28;20040;-76
2022/10/08 10:05:58;;;;;;;12.65;6.63;;;;;;;24.24;35.21;95770.22;5047467;28;20040;-77
2022/10/08 10:08:50;;;;;;;10.50;6.70;;;;;;;25.14;33.35;95766.72;5046927;28;20039;-77
2022/10/08 10:11:47;;;;;;;19.52;6.57;;;;;;;25.96;30.31;95766.59;5049637;28;20052;-76
2022/10/08 10:14:52;;;;;;;13.00;5.45;;;;;;;26.51;29.80;95753.69;5035895;28;20048;-77
2022/10/08 10:17:54;;;;;;;10.23;5.18;;;;;;;26.64;28.96;95741.50;5048177;28;20040;-76
2022/10/08 10:20:23;;;;;;;11.48;5.30;;;;;;;27.16;29.30;95740.81;5047780;28;20146;-77
2022/10/08 10:23:18;;;;;;;12.65;5.93;;;;;;;27.52;28.49;95742.13;5054004;28;20044;-77
2022/10/08 10:25:46;;;;;;;13.55;5.15;;;;;;;27.79;28.48;95734.72;5070486;28;20886;-77
2022/10/08 10:28:19;;;;;;;9.07;3.97;;;;;;;27.53;27.85;95713.78;5077625;28;20039;-77
2022/10/08 10:31:12;;;;;;;10.85;4.15;;;;;;;27.81;27.39;95724.25;5079216;28;20816;-77
2022/10/08 10:33:58;;;;;;;7.28;3.83;;;;;;;27.94;27.14;95731.00;5056054;28;20044;-77
2022/10/08 10:36:30;;;;;;;11.73;3.78;;;;;;;27.49;26.90;95663.06;5033121;28;20032;-77
2022/10/08 10:39:26;;;;;;;9.70;3.55;;;;;;;27.63;27.20;95687.81;5056356;28;20143;-77
2022/10/08 10:42:17;;;;;;;6.25;3.85;;;;;;;27.81;27.42;95721.53;5035477;28;20130;-77
2022/10/08 10:44:48;;;;;;;5.45;3.53;;;;;;;27.83;27.50;95710.25;5059185;28;20482;-77
2022/10/08 10:47:14;;;;;;;12.57;4.63;;;;;;;27.46;27.38;95682.91;5059448;28;20155;-77
2022/10/08 10:49:41;;;;;;;6.57;3.60;;;;;;;27.79;27.76;95709.41;5061670;28;20541;-77
2022/10/08 10:52:48;;;;;;;7.43;4.30;;;;;;;27.89;28.09;95701.38;5078421;28;20036;-76
2022/10/08 10:55:25;;;;;;;10.05;3.55;;;;;;;27.69;27.48;95647.41;5052970;28;20041;-76
2022/10/08 10:58:25;;;;;;;11.02;3.80;;;;;;;27.69;28.04;95663.75;5042178;28;20036;-77
2022/10/08 11:01:12;;;;;;;12.75;4.90;;;;;;;27.86;27.72;95676.78;5073678;28;20036;-77
2022/10/08 11:04:06;;;;;;;7.88;4.35;;;;;;;27.95;28.10;95680.78;5074512;28;20059;-76
2022/10/08 11:06:51;;;;;;;8.18;4.15;;;;;;;27.65;28.84;95671.88;5025066;28;20551;-76
2022/10/08 11:09:40;;;;;;;9.85;3.80;;;;;;;27.74;28.59;95674.31;5060204;28;20044;-76
2022/10/08 11:12:11;;;;;;;10.13;3.85;;;;;;;27.70;28.23;95670.75;5060507;28;20032;-77
2022/10/08 11:14:43;;;;;;;9.50;3.92;;;;;;;27.58;28.41;95667.13;5060217;28;20071;-76
2022/10/08 11:17:37;;;;;;;12.82;4.53;;;;;;;27.49;29.24;95654.91;5059443;28;20029;-77
2022/10/08 11:20:09;;;;;;;10.88;4.35;;;;;;;27.69;28.07;95652.84;5041073;28;20025;-77
2022/10/08 11:22:37;;;;;;;9.38;4.45;;;;;;;27.74;28.77;95652.53;5066916;28;20040;-76
2022/10/08 11:25:05;;;;;;;6.22;3.60;;;;;;;27.79;28.13;95644.00;5050036;28;20667;-76
2022/10/08 11:27:50;;;;;;;14.07;4.60;;;;;;;27.82;28.17;95619.53;5063141;28;20043;-76
2022/10/08 11:30:23;;;;;;;13.00;4.15;;;;;;;27.98;27.44;95639.16;5057191;28;20024;-76
2022/10/08 11:32:51;;;;;;;11.32;3.45;;;;;;;27.75;28.41;95645.91;5053063;28;20414;-75
2022/10/08 11:35:23;;;;;;;10.15;3.92;;;;;;;28.01;27.61;95643.06;5053826;28;20571;-78
2022/10/08 11:38:38;;;;;;;5.70;2.97;;;;;;;28.02;27.16;95628.28;5072080;28;20086;-77
2022/10/08 11:41:15;;;;;;;7.50;3.67;;;;;;;27.43;27.63;95495.69;5028143;28;20071;-77
2022/10/08 11:43:49;;;;;;;10.20;3.40;;;;;;;28.34;27.02;95629.41;5043591;28;20047;-77